ETEB 021156Z AUTO 12004KT 9999 CLR 10/05 A3047 RMK AO2 SLP344 T00990045 10099 20003 58003 $ ETIK 021256Z AUTO 09003KT 9999 CLR 13/02 A3047 RMK AO2 SLP329 T01290019 EDDE 021320Z 02004KT 310V060 CAVOK 06/04 Q1032 NOSIG EDDF 021320Z 03004KT 340V150 CAVOK 14/02 Q1031 NOSIG ETIC 021256Z AUTO 12004KT 9999 CLR 14/M05 A3045 RMK AO2 SLP326 T01421050 $ EDQM 021320Z 16008KT CAVOK 12/M02 Q1031 ETIH 021256Z AUTO 00000KT 9999 CLR 12/M03 A3048 RMK AO2 SLP339 T01161034 ETSI 021320Z 07003KT 9999 12/01 Q1031 BLU+BLU+ EDDP 021320Z 06004KT 020V110 9999 FEW005 07/05 Q1033 NOSIG EDDM 021320Z VRB02KT CAVOK 12/02 Q1031 NOSIG ETSN 021320Z 17003KT 9999 11/01 Q1031 BLU+BLU+ ETHN 021320Z 15003KT 9999 12/03 Q1031 BLU+BLU+ EDDN 021320Z 17004KT 120V270 CAVOK 15/M02 Q1031 NOSIG EDDS 021320Z VRB02KT CAVOK 16/00 Q1031 NOSIG

METAR Messwerte

Klicken Sie auf einen Ort, um die 36h-Historie abzurufen

Ort
m ü. NN
Zeit Temperatur Taupunkt Rel.
Luftfeuchte
Luftdruck:
Altimeter
NN
Station
Wind in Beaufort
(Knoten)
Sichtweite
(Meter)
Wolken
(Meter über Grund)
Wettererscheinung
Ansbach
467
Di 02.03. 12:5610571 %1032
1033
976
OSO 2 (4)>= 10000  
Bad Windsheim / Illesheim
325
Di 02.03. 13:5613247 %1032
1032
993
O 2 (3)>= 10000  
Erfurt-Bindersleben
323
Di 02.03. 14:206487 %1032
1033
993
NNO 2 (4)
NW - ONO
>= 10000Nicht signifikant 
Frankfurt
113
Di 02.03. 14:2014244 %1031
1031
1017
NNO 2 (4)
NNW - SSO
>= 10000Nicht signifikant 
Grafenwöhr
415
Di 02.03. 13:5614-526 %1031
1031
981
OSO 2 (4)>= 10000  
Hof
568
Di 02.03. 14:2012-238 %1031
1032
964
SSO 3 (8)>= 10000Nicht signifikant 
Hohenfels
442
Di 02.03. 13:5612-335 %1032
1033
979
Windstill>= 10000  
Ingolstadt
370
Di 02.03. 14:2012147 %1031
1032
987
ONO 2 (3)>= 10000  
Leipzig-Schkeuditz
149
Di 02.03. 14:207587 %1033
1034
1015
ONO 2 (4)
NNO - OSO
>= 10000Leicht bewölkt (150) 
München
447
Di 02.03. 14:2012250 %1031
1032
978
Uml 1 (2)>= 10000Nicht signifikant 
Neuburg/Donau
387
Di 02.03. 14:2011150 %1031
1032
985
S 2 (3)>= 10000  
Niederstetten
473
Di 02.03. 14:2012354 %1031
1032
975
SSO 2 (3)>= 10000  
Nürnberg
312
Di 02.03. 14:2015-231 %1031
1031
994
S 2 (4)
OSO - W
>= 10000Nicht signifikant 
Stuttgart
419
Di 02.03. 14:2016034 %1031
1031
981
Uml 1 (2)>= 10000Nicht signifikant 

Altimeter: Einstellung am Altimeter (Höhenmesser), die Höhe 0 muss auf diesen Luftdruckwert zeigen, damit das Gerät die Stationshöhe richtig anzeigt.

NN: Luftdruck reduziert auf "Normal Null", auf Meereshöhe, dieser von der Temperatur abhängige Wert wird bisweilen unkorrekt einfach als "Luftdruck" bezeichnet. Eigentlich nur eine fiktive Größe, die es erlaubt, Stationen auf unterschiedlichen Höhen miteinander zu vergleichen.

Station: Realer Luftdruck an der Station.